createdAt,value
2022-10-18T00:00:53.527Z,98555.80
2022-10-18T00:03:20.698Z,98553.80
2022-10-18T00:05:49.530Z,98552.60
2022-10-18T00:08:18.705Z,98550.80
2022-10-18T00:10:47.085Z,98546.20
2022-10-18T00:13:14.136Z,98540.20
2022-10-18T00:15:49.837Z,98540.00
2022-10-18T00:18:16.765Z,98541.60
2022-10-18T00:20:43.661Z,98538.00
2022-10-18T00:23:10.492Z,98539.40
2022-10-18T00:25:37.353Z,98536.00
2022-10-18T00:28:04.225Z,98539.60
2022-10-18T00:30:31.140Z,98534.60
2022-10-18T00:32:57.983Z,98541.40
2022-10-18T00:35:25.318Z,98541.00
2022-10-18T00:37:52.126Z,98535.80
2022-10-18T00:40:19.123Z,98541.60
2022-10-18T00:42:45.965Z,98541.40
2022-10-18T00:45:25.524Z,98541.80
2022-10-18T00:48:02.885Z,98542.80
2022-10-18T00:50:33.990Z,98546.80
2022-10-18T00:53:06.921Z,98549.00
2022-10-18T00:55:34.402Z,98552.40
2022-10-18T00:58:02.559Z,98546.20
2022-10-18T01:00:29.804Z,98544.20
2022-10-18T01:02:59.121Z,98544.20
2022-10-18T01:05:26.716Z,98541.80
2022-10-18T01:08:06.008Z,98537.00
2022-10-18T01:10:47.741Z,98530.00
2022-10-18T01:13:36.891Z,98527.80
2022-10-18T01:17:03.510Z,98522.60
2022-10-18T01:20:15.890Z,98522.60
2022-10-18T01:22:55.142Z,98522.20
2022-10-18T01:25:46.764Z,98510.40
2022-10-18T01:28:46.404Z,98511.60
2022-10-18T01:31:23.630Z,98517.40
2022-10-18T01:33:59.822Z,98518.20
2022-10-18T01:36:41.361Z,98521.00
2022-10-18T01:39:17.986Z,98518.80
2022-10-18T01:41:49.325Z,98522.40
2022-10-18T01:44:23.576Z,98516.40
2022-10-18T01:46:54.866Z,98514.80
2022-10-18T01:49:21.842Z,98515.80
2022-10-18T01:51:48.790Z,98512.40
2022-10-18T01:54:32.826Z,98514.80
2022-10-18T01:57:25.245Z,98507.00
2022-10-18T02:00:06.350Z,98505.40
2022-10-18T02:02:50.768Z,98501.60
2022-10-18T02:05:48.485Z,98494.20
2022-10-18T02:08:27.701Z,98490.60
2022-10-18T02:11:05.449Z,98488.80
2022-10-18T02:14:06.032Z,98488.60
2022-10-18T02:16:54.568Z,98486.60
2022-10-18T02:19:39.241Z,98481.20
2022-10-18T02:22:10.630Z,98483.00
2022-10-18T02:24:47.436Z,98480.40
2022-10-18T02:27:14.847Z,98490.00
2022-10-18T02:29:43.847Z,98492.00
2022-10-18T02:32:29.735Z,98504.40
2022-10-18T02:35:16.772Z,98512.00
2022-10-18T02:37:47.743Z,98520.20
2022-10-18T02:40:16.139Z,98524.40
2022-10-18T02:42:54.331Z,98532.00
2022-10-18T02:45:22.009Z,98535.00
2022-10-18T02:47:48.954Z,98539.20
2022-10-18T02:50:15.817Z,98540.00
2022-10-18T02:52:42.583Z,98542.20
2022-10-18T02:55:10.909Z,98544.00
2022-10-18T02:57:37.979Z,98548.20
2022-10-18T03:00:06.989Z,98546.00
2022-10-18T03:02:33.999Z,98549.20
2022-10-18T03:05:00.855Z,98547.20
2022-10-18T03:07:27.787Z,98545.20
2022-10-18T03:09:54.606Z,98542.80
2022-10-18T03:12:21.702Z,98547.40
2022-10-18T03:14:48.721Z,98541.40
2022-10-18T03:17:15.870Z,98540.80
2022-10-18T03:19:42.839Z,98540.20
2022-10-18T03:22:09.759Z,98534.20
2022-10-18T03:24:36.703Z,98540.20
2022-10-18T03:27:03.845Z,98542.60
2022-10-18T03:29:30.695Z,98544.80
2022-10-18T03:31:57.517Z,98538.40
2022-10-18T03:34:24.365Z,98538.20
2022-10-18T03:36:51.345Z,98538.00
2022-10-18T03:39:18.330Z,98539.20
2022-10-18T03:41:45.178Z,98546.00
2022-10-18T03:44:12.158Z,98540.00
2022-10-18T03:46:39.004Z,98544.00
2022-10-18T03:49:05.790Z,98550.80
2022-10-18T03:51:32.620Z,98551.20
2022-10-18T03:53:59.638Z,98550.20
2022-10-18T03:56:26.447Z,98552.40
2022-10-18T03:58:53.401Z,98557.60
2022-10-18T04:01:20.303Z,98557.40
2022-10-18T04:03:47.200Z,98555.60
2022-10-18T04:06:14.148Z,98557.00
2022-10-18T04:08:40.992Z,98553.00
2022-10-18T04:11:08.651Z,98551.60
2022-10-18T04:13:36.281Z,98555.00
2022-10-18T04:16:03.245Z,98559.20
2022-10-18T04:18:30.202Z,98555.20
2022-10-18T04:20:57.863Z,98554.20
2022-10-18T04:23:24.745Z,98553.20
2022-10-18T04:25:51.768Z,98553.80
2022-10-18T04:28:18.900Z,98554.80
2022-10-18T04:30:53.747Z,98554.00
2022-10-18T04:33:21.106Z,98556.60
2022-10-18T04:35:52.246Z,98551.60
2022-10-18T04:38:20.300Z,98552.60
2022-10-18T04:40:46.976Z,98551.80
2022-10-18T04:43:13.940Z,98553.20
2022-10-18T04:45:40.825Z,98550.20
2022-10-18T04:48:07.938Z,98552.40
2022-10-18T04:50:34.696Z,98555.60
2022-10-18T04:53:01.660Z,98553.60
2022-10-18T04:55:28.503Z,98556.20
2022-10-18T04:57:55.641Z,98558.80
2022-10-18T05:00:22.586Z,98556.80
2022-10-18T05:02:49.421Z,98555.80
2022-10-18T05:05:16.398Z,98553.60
2022-10-18T05:07:43.329Z,98552.40
2022-10-18T05:10:10.349Z,98554.20
2022-10-18T05:12:37.319Z,98552.60
2022-10-18T05:15:04.856Z,98549.00
2022-10-18T05:17:31.814Z,98548.40
2022-10-18T05:19:58.871Z,98549.20
2022-10-18T05:22:25.678Z,98547.20
2022-10-18T05:24:52.551Z,98553.00
2022-10-18T05:27:19.677Z,98540.40
2022-10-18T05:29:46.650Z,98531.00
2022-10-18T05:32:13.478Z,98531.40
2022-10-18T05:34:40.353Z,98531.80
2022-10-18T05:37:07.380Z,98536.20
2022-10-18T05:39:34.224Z,98533.20
2022-10-18T05:42:01.082Z,98537.80
2022-10-18T05:44:27.919Z,98540.80
2022-10-18T05:46:54.744Z,98536.60
2022-10-18T05:49:21.676Z,98533.20
2022-10-18T05:51:48.945Z,98533.60
2022-10-18T05:54:16.122Z,98529.60
2022-10-18T05:56:42.955Z,98529.40
2022-10-18T05:59:12.255Z,98528.40
2022-10-18T06:01:41.440Z,98524.00
2022-10-18T06:04:10.416Z,98522.80
2022-10-18T06:06:38.793Z,98522.60
2022-10-18T06:09:08.729Z,98522.20
2022-10-18T06:11:37.060Z,98523.60
2022-10-18T06:14:05.256Z,98521.60
2022-10-18T06:16:32.784Z,98525.20
2022-10-18T06:19:00.162Z,98526.60
2022-10-18T06:21:27.969Z,98522.00
2022-10-18T06:23:58.746Z,98530.20
2022-10-18T06:26:28.187Z,98530.60
2022-10-18T06:28:55.250Z,98531.40
2022-10-18T06:31:22.110Z,98540.80
2022-10-18T06:33:49.343Z,98540.20
2022-10-18T06:36:21.981Z,98540.60
2022-10-18T06:38:48.957Z,98543.00
2022-10-18T06:41:19.252Z,98548.20
2022-10-18T06:43:57.708Z,98552.80
2022-10-18T06:46:26.444Z,98555.60
2022-10-18T06:48:53.211Z,98551.60
2022-10-18T06:51:20.661Z,98551.20
2022-10-18T06:53:59.612Z,98555.40
2022-10-18T06:56:35.736Z,98547.80
2022-10-18T06:59:02.718Z,98542.00
2022-10-18T07:01:29.884Z,98541.40
2022-10-18T07:03:57.027Z,98539.20
2022-10-18T07:06:24.860Z,98547.00
2022-10-18T07:08:55.089Z,98554.60
2022-10-18T07:11:26.453Z,98557.00
2022-10-18T07:14:06.055Z,98558.00
2022-10-18T07:16:34.530Z,98556.20
2022-10-18T07:19:01.403Z,98554.40
2022-10-18T07:21:28.656Z,98553.60
2022-10-18T07:23:56.438Z,98551.80
2022-10-18T07:26:29.151Z,98548.40
2022-10-18T07:29:05.230Z,98553.60
2022-10-18T07:31:32.110Z,98557.60
2022-10-18T07:33:59.260Z,98556.40
2022-10-18T07:36:26.298Z,98558.40
2022-10-18T07:38:53.637Z,98560.80
2022-10-18T07:41:21.734Z,98564.60
2022-10-18T07:43:51.772Z,98570.20
2022-10-18T07:46:21.932Z,98573.00
2022-10-18T07:48:49.609Z,98578.00
2022-10-18T07:51:17.887Z,98573.20
2022-10-18T07:53:44.853Z,98571.40
2022-10-18T07:56:16.563Z,98576.40
2022-10-18T07:58:53.232Z,98575.20
2022-10-18T08:01:23.118Z,98574.40
2022-10-18T08:03:50.929Z,98575.00
2022-10-18T08:06:21.145Z,98569.60
2022-10-18T08:08:48.613Z,98567.60
2022-10-18T08:11:23.484Z,98571.00
2022-10-18T08:13:52.524Z,98570.20
2022-10-18T08:18:59.195Z,98563.40
2022-10-18T08:21:26.816Z,98560.20
2022-10-18T08:23:54.074Z,98560.60
2022-10-18T08:26:22.973Z,98562.80
2022-10-18T08:28:54.322Z,98565.40
2022-10-18T08:31:31.183Z,98565.00
2022-10-18T08:33:58.217Z,98564.80
2022-10-18T08:36:25.366Z,98563.40
2022-10-18T08:38:52.607Z,98563.80
2022-10-18T08:41:37.589Z,98566.60
2022-10-18T08:44:46.774Z,98573.00
2022-10-18T08:47:37.454Z,98573.60
2022-10-18T08:50:21.499Z,98572.20
2022-10-18T08:53:17.799Z,98571.00
2022-10-18T08:56:00.914Z,98571.00
2022-10-18T08:58:33.376Z,98568.20
2022-10-18T09:01:27.675Z,98574.20
2022-10-18T09:04:26.168Z,98576.80
2022-10-18T09:07:26.702Z,98582.00
2022-10-18T09:10:44.998Z,98580.80
2022-10-18T09:13:37.976Z,98579.80
2022-10-18T09:16:28.296Z,98578.80
2022-10-18T09:20:05.585Z,98571.00
2022-10-18T09:22:59.896Z,98568.40
2022-10-18T09:25:41.649Z,98570.40
2022-10-18T09:28:16.066Z,98567.20
2022-10-18T09:31:36.589Z,98567.80
2022-10-18T09:34:51.865Z,98570.00
2022-10-18T09:37:22.469Z,98566.60
2022-10-18T09:39:56.106Z,98570.60
2022-10-18T09:42:36.044Z,98569.60
2022-10-18T09:45:20.633Z,98562.40
2022-10-18T09:48:10.871Z,98564.60
2022-10-18T09:51:05.260Z,98565.20
2022-10-18T09:54:14.221Z,98559.60
2022-10-18T09:57:17.557Z,98565.60
2022-10-18T09:59:50.025Z,98561.40
2022-10-18T10:02:23.667Z,98555.80
2022-10-18T10:04:52.067Z,98560.60
2022-10-18T10:07:34.909Z,98559.00
2022-10-18T10:10:21.798Z,98561.20
2022-10-18T10:13:02.359Z,98557.00
2022-10-18T10:15:33.176Z,98554.40
2022-10-18T10:18:15.297Z,98559.80
2022-10-18T10:20:43.221Z,98556.80
2022-10-18T10:23:28.430Z,98559.60
2022-10-18T10:26:06.658Z,98558.20
2022-10-18T10:28:46.342Z,98558.00
2022-10-18T10:31:27.382Z,98555.60
2022-10-18T10:34:20.324Z,98547.60
2022-10-18T10:36:51.528Z,98550.60
2022-10-18T10:39:21.857Z,98548.80
2022-10-18T10:42:01.208Z,98545.80
2022-10-18T10:44:36.069Z,98545.80
2022-10-18T10:47:04.204Z,98539.00
2022-10-18T10:49:47.559Z,98537.60
2022-10-18T10:52:29.076Z,98526.40
2022-10-18T10:55:11.362Z,98528.00
2022-10-18T10:57:48.404Z,98529.80
2022-10-18T11:00:43.431Z,98520.20
2022-10-18T11:03:34.745Z,98518.40
2022-10-18T11:06:02.186Z,98518.60
2022-10-18T11:08:41.510Z,98507.00
2022-10-18T11:11:50.013Z,98508.20
2022-10-18T11:14:32.434Z,98507.00
2022-10-18T11:17:01.142Z,98499.60
2022-10-18T11:19:54.962Z,98497.00
2022-10-18T11:22:27.803Z,98496.80
2022-10-18T11:24:55.103Z,98491.00
2022-10-18T11:27:34.385Z,98486.60
2022-10-18T11:30:34.899Z,98491.40
2022-10-18T11:33:19.666Z,98489.80
2022-10-18T11:36:34.043Z,98490.80
2022-10-18T11:39:06.211Z,98485.40
2022-10-18T11:41:46.166Z,98482.20
2022-10-18T11:44:44.189Z,98479.00
2022-10-18T11:47:33.348Z,98471.40
2022-10-18T11:50:11.505Z,98473.80
2022-10-18T11:53:07.431Z,98473.60
2022-10-18T11:56:04.994Z,98470.60
2022-10-18T11:58:59.954Z,98475.80
2022-10-18T12:02:09.011Z,98472.60
2022-10-18T12:04:53.050Z,98473.40
2022-10-18T12:07:42.103Z,98467.40
2022-10-18T12:10:19.498Z,98465.80
2022-10-18T12:13:03.624Z,98465.00
2022-10-18T12:15:37.505Z,98461.00
2022-10-18T12:18:16.195Z,98456.20
2022-10-18T12:20:51.652Z,98460.00
2022-10-18T12:23:36.583Z,98450.80
2022-10-18T12:26:08.374Z,98449.20
2022-10-18T12:28:47.296Z,98443.60
2022-10-18T12:31:36.989Z,98438.60
2022-10-18T12:34:21.687Z,98439.40
2022-10-18T12:37:20.729Z,98434.60
2022-10-18T12:40:21.766Z,98425.60
2022-10-18T12:42:52.153Z,98428.40
2022-10-18T12:45:36.639Z,98422.80
2022-10-18T12:48:08.586Z,98422.20
2022-10-18T12:50:42.637Z,98414.20
2022-10-18T12:53:20.266Z,98411.00
2022-10-18T12:55:51.654Z,98405.60
2022-10-18T12:58:30.522Z,98405.60
2022-10-18T13:01:04.123Z,98402.00
2022-10-18T13:03:56.355Z,98408.40
2022-10-18T13:06:24.245Z,98403.40
2022-10-18T13:09:17.953Z,98399.40
2022-10-18T13:11:45.329Z,98398.60
2022-10-18T13:14:27.119Z,98398.20
2022-10-18T13:17:26.610Z,98395.20
2022-10-18T13:20:37.434Z,98390.40
2022-10-18T13:24:05.479Z,98391.40
2022-10-18T13:27:31.362Z,98389.00
2022-10-18T13:30:17.505Z,98386.00
2022-10-18T13:33:29.293Z,98384.60
2022-10-18T13:36:26.127Z,98386.20
2022-10-18T13:39:03.831Z,98387.60
2022-10-18T13:41:56.705Z,98385.40
2022-10-18T13:44:46.563Z,98382.40
2022-10-18T13:47:37.992Z,98379.20
2022-10-18T13:53:16.002Z,98370.40
2022-10-18T13:56:01.902Z,98377.60
2022-10-18T13:58:49.114Z,98386.40
2022-10-18T14:01:26.112Z,98376.80
2022-10-18T14:04:19.301Z,98374.60
2022-10-18T14:06:48.359Z,98373.40
2022-10-18T14:12:38.711Z,98373.60
2022-10-18T14:15:31.315Z,98372.60
2022-10-18T14:18:23.491Z,98370.40
2022-10-18T14:21:16.917Z,98365.40
2022-10-18T14:23:47.722Z,98367.00
2022-10-18T14:26:18.480Z,98366.40
2022-10-18T14:29:01.420Z,98369.20
2022-10-18T14:31:28.777Z,98365.40
2022-10-18T14:33:58.983Z,98369.20
2022-10-18T14:36:42.720Z,98366.00
2022-10-18T14:39:22.657Z,98363.80
2022-10-18T14:41:58.932Z,98363.40
2022-10-18T14:44:31.848Z,98365.00
2022-10-18T14:47:04.086Z,98364.80
2022-10-18T14:49:31.349Z,98365.20
2022-10-18T14:52:00.429Z,98364.00
2022-10-18T14:54:37.944Z,98369.60
2022-10-18T14:57:06.917Z,98369.80
2022-10-18T14:59:44.481Z,98367.40
2022-10-18T15:02:15.286Z,98373.60
2022-10-18T15:04:47.050Z,98375.80
2022-10-18T15:07:17.461Z,98378.40
2022-10-18T15:09:47.195Z,98373.00
2022-10-18T15:12:16.201Z,98374.60
2022-10-18T15:14:45.703Z,98376.60
2022-10-18T15:17:34.292Z,98370.60
2022-10-18T15:20:18.436Z,98369.20
2022-10-18T15:22:48.970Z,98375.80
2022-10-18T15:25:21.034Z,98371.80
2022-10-18T15:27:58.186Z,98368.80
2022-10-18T15:30:38.502Z,98370.60
2022-10-18T15:33:10.790Z,98367.80
2022-10-18T15:35:39.836Z,98371.00
2022-10-18T15:38:26.954Z,98369.80
2022-10-18T15:40:55.105Z,98362.60
2022-10-18T15:43:27.898Z,98366.60
2022-10-18T15:46:05.055Z,98364.40
2022-10-18T15:48:39.134Z,98359.40
2022-10-18T15:51:46.903Z,98358.40
2022-10-18T15:54:29.824Z,98351.20
2022-10-18T15:56:57.394Z,98351.40
2022-10-18T15:59:28.504Z,98352.80
2022-10-18T16:01:55.560Z,98355.80
2022-10-18T16:04:27.949Z,98357.40
2022-10-18T16:06:58.554Z,98359.40
2022-10-18T16:09:28.908Z,98360.00
2022-10-18T16:11:57.487Z,98351.60
2022-10-18T16:14:27.544Z,98362.00
2022-10-18T16:17:00.950Z,98361.40
2022-10-18T16:19:29.520Z,98361.20
2022-10-18T16:21:56.862Z,98362.20
2022-10-18T16:24:24.402Z,98358.40
2022-10-18T16:26:53.898Z,98360.60
2022-10-18T16:29:28.698Z,98367.60
2022-10-18T16:31:58.344Z,98368.00
2022-10-18T16:34:27.593Z,98368.40
2022-10-18T16:36:55.501Z,98367.40
2022-10-18T16:39:24.704Z,98376.40
2022-10-18T16:41:52.413Z,98377.60
2022-10-18T16:44:19.551Z,98374.80
2022-10-18T16:46:51.067Z,98376.60
2022-10-18T16:49:26.369Z,98377.00
2022-10-18T16:51:55.001Z,98382.60
2022-10-18T16:54:23.161Z,98378.80
2022-10-18T16:56:50.550Z,98385.40
2022-10-18T16:59:30.515Z,98381.80
2022-10-18T17:01:58.179Z,98386.80
2022-10-18T17:04:25.073Z,98380.20
2022-10-18T17:06:54.557Z,98376.20
2022-10-18T17:09:21.438Z,98375.60
2022-10-18T17:11:48.246Z,98375.40
2022-10-18T17:14:15.068Z,98381.60
2022-10-18T17:16:44.515Z,98381.00
2022-10-18T17:19:15.032Z,98380.20
2022-10-18T17:21:41.977Z,98379.60
2022-10-18T17:24:08.928Z,98378.40
2022-10-18T17:26:35.705Z,98382.40
2022-10-18T17:29:06.335Z,98387.40
2022-10-18T17:31:33.800Z,98393.20
2022-10-18T17:34:02.129Z,98390.80
2022-10-18T17:36:31.542Z,98391.20
2022-10-18T17:38:59.103Z,98396.20
2022-10-18T17:41:26.477Z,98403.40
2022-10-18T17:43:53.718Z,98401.60
2022-10-18T17:46:20.958Z,98399.60
2022-10-18T17:48:47.777Z,98405.20
2022-10-18T17:51:17.241Z,98411.20
2022-10-18T17:53:44.648Z,98409.60
2022-10-18T17:56:13.031Z,98410.40
2022-10-18T17:58:40.379Z,98412.20
2022-10-18T18:01:17.809Z,98412.00
2022-10-18T18:03:47.604Z,98412.40
2022-10-18T18:06:22.826Z,98408.40
2022-10-18T18:08:50.487Z,98404.80
2022-10-18T18:11:18.464Z,98399.80
2022-10-18T18:13:46.012Z,98400.40
2022-10-18T18:16:21.802Z,98393.00
2022-10-18T18:18:53.921Z,98390.00
2022-10-18T18:21:22.117Z,98383.00
2022-10-18T18:23:49.863Z,98379.80
2022-10-18T18:26:17.685Z,98382.00
2022-10-18T18:28:45.030Z,98387.20
2022-10-18T18:31:19.765Z,98384.40
2022-10-18T18:33:46.621Z,98390.60
2022-10-18T18:36:13.606Z,98390.00
2022-10-18T18:38:44.508Z,98389.40
2022-10-18T18:41:18.666Z,98385.60
2022-10-18T18:43:58.638Z,98381.00
2022-10-18T18:46:28.588Z,98385.00
2022-10-18T18:48:58.322Z,98386.20
2022-10-18T18:51:25.758Z,98385.60
2022-10-18T18:53:52.646Z,98385.40
2022-10-18T18:56:24.095Z,98388.80
2022-10-18T18:58:53.683Z,98385.80
2022-10-18T19:01:25.026Z,98386.20
2022-10-18T19:03:55.067Z,98385.00
2022-10-18T19:06:25.801Z,98387.40
2022-10-18T19:08:58.181Z,98388.20
2022-10-18T19:11:24.998Z,98382.80
2022-10-18T19:13:51.939Z,98388.60
2022-10-18T19:16:33.852Z,98391.40
2022-10-18T19:19:14.039Z,98388.40
2022-10-18T19:21:56.876Z,98388.80
2022-10-18T19:24:27.317Z,98386.00
2022-10-18T19:27:02.068Z,98397.40
2022-10-18T19:29:38.993Z,98404.60
2022-10-18T19:32:11.959Z,98409.80
2022-10-18T19:34:39.312Z,98411.20
2022-10-18T19:37:06.044Z,98412.40
2022-10-18T19:39:35.549Z,98415.00
2022-10-18T19:42:06.909Z,98419.00
2022-10-18T19:44:36.749Z,98424.80
2022-10-18T19:47:06.635Z,98419.80
2022-10-18T19:49:33.528Z,98418.20
2022-10-18T19:52:00.387Z,98417.00
2022-10-18T19:54:27.289Z,98414.40
2022-10-18T19:56:54.167Z,98415.00
2022-10-18T19:59:22.663Z,98412.60
2022-10-18T20:01:49.982Z,98418.60
2022-10-18T20:04:17.636Z,98422.00
2022-10-18T20:06:45.333Z,98418.80
2022-10-18T20:09:17.689Z,98420.00
2022-10-18T20:11:47.516Z,98420.80
2022-10-18T20:14:14.373Z,98417.60
2022-10-18T20:16:41.201Z,98412.40
2022-10-18T20:19:08.253Z,98413.80
2022-10-18T20:21:36.582Z,98412.00
2022-10-18T20:24:06.028Z,98406.80
2022-10-18T20:26:35.956Z,98408.80
2022-10-18T20:29:04.303Z,98411.40
2022-10-18T20:31:37.150Z,98418.40
2022-10-18T20:34:08.154Z,98412.80
2022-10-18T20:36:35.468Z,98412.00
2022-10-18T20:39:03.758Z,98406.60
2022-10-18T20:41:41.139Z,98408.60
2022-10-18T20:44:19.486Z,98411.60
2022-10-18T20:46:47.117Z,98408.00
2022-10-18T20:49:16.638Z,98409.00
2022-10-18T20:51:43.794Z,98410.40
2022-10-18T20:54:12.280Z,98410.80
2022-10-18T20:56:39.578Z,98413.00
2022-10-18T20:59:09.654Z,98412.00
2022-10-18T21:01:38.703Z,98409.00
2022-10-18T21:04:08.513Z,98418.20
2022-10-18T21:06:42.409Z,98417.80
2022-10-18T21:09:18.910Z,98415.80
2022-10-18T21:11:49.781Z,98407.80
2022-10-18T21:14:20.327Z,98408.80
2022-10-18T21:16:48.339Z,98416.00
2022-10-18T21:19:21.337Z,98416.00
2022-10-18T21:21:51.961Z,98421.40
2022-10-18T21:24:20.989Z,98430.20
2022-10-18T21:26:48.437Z,98425.00
2022-10-18T21:29:20.770Z,98424.60
2022-10-18T21:31:49.200Z,98427.00
2022-10-18T21:34:17.552Z,98432.40
2022-10-18T21:36:46.925Z,98433.60
2022-10-18T21:39:20.921Z,98439.80
2022-10-18T21:41:47.916Z,98440.00
2022-10-18T21:44:16.577Z,98440.20
2022-10-18T21:46:44.178Z,98440.00
2022-10-18T21:49:11.497Z,98441.00
2022-10-18T21:51:38.945Z,98443.60
2022-10-18T21:54:11.534Z,98445.80
2022-10-18T21:56:38.745Z,98446.60
2022-10-18T21:59:05.950Z,98451.60
2022-10-18T22:01:38.772Z,98444.20
2022-10-18T22:04:17.253Z,98449.80
2022-10-18T22:06:44.056Z,98451.60
2022-10-18T22:09:12.765Z,98449.20
2022-10-18T22:11:45.439Z,98444.40
2022-10-18T22:14:12.791Z,98442.40
2022-10-18T22:16:39.580Z,98450.00
2022-10-18T22:19:07.825Z,98447.40
2022-10-18T22:21:35.275Z,98447.20
2022-10-18T22:24:07.293Z,98439.80
2022-10-18T22:26:38.266Z,98442.00
2022-10-18T22:29:20.936Z,98449.20
2022-10-18T22:31:52.429Z,98453.20
2022-10-18T22:34:29.153Z,98451.60
2022-10-18T22:36:56.574Z,98452.60
2022-10-18T22:39:24.680Z,98454.20
2022-10-18T22:41:55.925Z,98452.00
2022-10-18T22:44:23.626Z,98454.00
2022-10-18T22:46:50.472Z,98455.00
2022-10-18T22:49:17.336Z,98451.00
2022-10-18T22:51:44.288Z,98456.00
2022-10-18T22:54:11.225Z,98454.60
2022-10-18T22:56:38.074Z,98455.80
2022-10-18T22:59:04.901Z,98454.40
2022-10-18T23:01:31.752Z,98452.00
2022-10-18T23:04:00.897Z,98454.60
2022-10-18T23:06:35.388Z,98450.60
2022-10-18T23:09:10.183Z,98450.60
2022-10-18T23:11:38.189Z,98452.20
2022-10-18T23:14:07.056Z,98449.80
2022-10-18T23:16:34.101Z,98449.60
2022-10-18T23:19:01.038Z,98452.40
2022-10-18T23:21:29.338Z,98453.40
2022-10-18T23:23:57.712Z,98456.80
2022-10-18T23:26:27.865Z,98458.80
2022-10-18T23:28:55.550Z,98457.80
2022-10-18T23:31:25.715Z,98457.60
2022-10-18T23:33:56.972Z,98450.80
2022-10-18T23:36:25.511Z,98449.60
2022-10-18T23:38:53.378Z,98449.80
2022-10-18T23:41:20.423Z,98450.00
2022-10-18T23:43:47.800Z,98447.80
2022-10-18T23:46:16.870Z,98450.20
2022-10-18T23:52:50.400Z,98450.60
2022-10-18T23:55:17.384Z,98448.00
2022-10-18T23:57:44.311Z,98452.60
